createdAt,value
2022-09-30T00:01:25.728Z,14.87
2022-09-30T00:03:57.202Z,14.49
2022-09-30T00:06:28.193Z,15.03
2022-09-30T00:08:56.355Z,15.13
2022-09-30T00:11:28.740Z,14.98
2022-09-30T00:13:57.604Z,15.34
2022-09-30T00:16:26.016Z,15.40
2022-09-30T00:18:55.422Z,15.24
2022-09-30T00:21:23.550Z,15.24
2022-09-30T00:23:50.999Z,14.26
2022-09-30T00:26:20.162Z,14.32
2022-09-30T00:28:55.076Z,14.85
2022-09-30T00:31:22.792Z,15.39
2022-09-30T00:34:07.043Z,15.37
2022-09-30T00:36:45.549Z,14.82
2022-09-30T00:39:26.814Z,15.30
2022-09-30T00:41:56.908Z,15.21
2022-09-30T00:44:48.062Z,14.51
2022-09-30T00:47:41.313Z,14.89
2022-09-30T00:50:25.435Z,14.50
2022-09-30T00:52:59.985Z,14.75
2022-09-30T00:55:33.434Z,15.05
2022-09-30T00:58:00.862Z,14.90
2022-09-30T01:00:28.553Z,15.20
2022-09-30T01:02:55.998Z,15.21
2022-09-30T01:05:25.136Z,15.40
2022-09-30T01:07:53.829Z,15.41
2022-09-30T01:10:21.247Z,15.47
2022-09-30T01:12:48.592Z,15.76
2022-09-30T01:15:16.435Z,15.61
2022-09-30T01:17:57.989Z,15.62
2022-09-30T01:20:37.018Z,15.47
2022-09-30T01:23:27.889Z,15.62
2022-09-30T01:26:14.719Z,15.75
2022-09-30T01:28:50.887Z,15.67
2022-09-30T01:31:37.922Z,15.96
2022-09-30T01:34:20.104Z,15.77
2022-09-30T01:37:03.716Z,15.57
2022-09-30T01:39:37.461Z,15.18
2022-09-30T01:42:42.514Z,14.76
2022-09-30T01:45:27.483Z,14.18
2022-09-30T01:48:05.410Z,14.62
2022-09-30T01:50:47.409Z,14.15
2022-09-30T01:53:36.880Z,14.45
2022-09-30T01:56:23.101Z,14.05
2022-09-30T01:59:07.534Z,14.46
2022-09-30T02:01:39.328Z,14.41
2022-09-30T02:04:12.900Z,14.59
2022-09-30T02:06:42.065Z,14.68
2022-09-30T02:09:25.773Z,14.14
2022-09-30T02:11:56.347Z,14.18
2022-09-30T02:14:28.530Z,14.28
2022-09-30T02:17:02.781Z,14.74
2022-09-30T02:19:37.045Z,14.87
2022-09-30T02:22:08.707Z,15.14
2022-09-30T02:24:39.188Z,15.12
2022-09-30T02:27:12.150Z,15.24
2022-09-30T02:29:41.932Z,15.26
2022-09-30T02:32:18.695Z,15.26
2022-09-30T02:34:53.529Z,14.56
2022-09-30T02:37:24.606Z,15.16
2022-09-30T02:40:06.657Z,15.04
2022-09-30T02:42:34.112Z,15.33
2022-09-30T02:45:16.424Z,14.71
2022-09-30T02:47:54.342Z,14.95
2022-09-30T02:50:32.556Z,14.93
2022-09-30T02:53:14.802Z,13.89
2022-09-30T02:56:03.321Z,14.80
2022-09-30T02:58:30.638Z,15.10
2022-09-30T03:00:58.421Z,15.15
2022-09-30T03:03:32.446Z,15.10
2022-09-30T03:06:00.146Z,14.94
2022-09-30T03:08:27.488Z,15.35
2022-09-30T03:10:55.668Z,15.51
2022-09-30T03:13:35.175Z,15.57
2022-09-30T03:16:24.917Z,15.80
2022-09-30T03:19:09.187Z,15.74
2022-09-30T03:21:58.738Z,15.94
2022-09-30T03:24:49.340Z,15.17
2022-09-30T03:27:33.893Z,15.52
2022-09-30T03:30:06.116Z,15.67
2022-09-30T03:32:42.543Z,15.43
2022-09-30T03:35:17.550Z,14.67
2022-09-30T03:37:54.281Z,14.43
2022-09-30T03:40:55.047Z,15.04
2022-09-30T03:43:29.654Z,14.87
2022-09-30T03:46:03.053Z,14.80
2022-09-30T03:48:30.424Z,14.57
2022-09-30T03:50:58.101Z,14.41
2022-09-30T03:53:26.306Z,14.85
2022-09-30T03:55:54.091Z,14.51
2022-09-30T03:58:23.450Z,14.30
2022-09-30T04:00:52.962Z,14.61
2022-09-30T04:03:21.549Z,14.75
2022-09-30T04:05:49.058Z,14.90
2022-09-30T04:08:16.498Z,14.78
2022-09-30T04:10:44.243Z,14.51
2022-09-30T04:13:11.708Z,14.25
2022-09-30T04:15:39.165Z,15.03
2022-09-30T04:18:06.934Z,14.34
2022-09-30T04:20:34.303Z,14.87
2022-09-30T04:23:01.784Z,14.84
2022-09-30T04:25:29.630Z,14.99
2022-09-30T04:27:57.045Z,14.96
2022-09-30T04:30:27.155Z,15.09
2022-09-30T04:32:55.721Z,15.51
2022-09-30T04:35:23.626Z,14.96
2022-09-30T04:37:50.921Z,15.01
2022-09-30T04:40:18.614Z,15.29
2022-09-30T04:42:47.546Z,15.07
2022-09-30T04:45:14.893Z,14.94
2022-09-30T04:47:45.685Z,14.76
2022-09-30T04:50:13.309Z,15.30
2022-09-30T04:52:43.917Z,15.14
2022-09-30T04:55:11.645Z,15.49
2022-09-30T04:57:39.139Z,14.40
2022-09-30T05:00:09.246Z,15.14
2022-09-30T05:02:36.819Z,15.09
2022-09-30T05:05:04.587Z,14.91
2022-09-30T05:07:32.142Z,14.84
2022-09-30T05:09:59.708Z,14.78
2022-09-30T05:12:27.140Z,14.54
2022-09-30T05:14:54.492Z,14.96
2022-09-30T05:17:22.164Z,15.15
2022-09-30T05:19:49.529Z,15.37
2022-09-30T05:22:16.846Z,14.45
2022-09-30T05:24:44.517Z,14.37
2022-09-30T05:27:11.952Z,15.07
2022-09-30T05:29:39.808Z,15.47
2022-09-30T05:32:07.919Z,15.21
2022-09-30T05:34:35.295Z,15.59
2022-09-30T05:37:02.668Z,15.32
2022-09-30T05:39:30.252Z,15.20
2022-09-30T05:41:58.259Z,14.67
2022-09-30T05:44:25.727Z,14.72
2022-09-30T05:46:53.692Z,15.43
2022-09-30T05:49:21.992Z,14.58
2022-09-30T05:51:49.514Z,15.07
2022-09-30T05:54:17.122Z,14.68
2022-09-30T05:56:44.494Z,15.02
2022-09-30T05:59:11.956Z,15.59
2022-09-30T06:01:39.669Z,15.08
2022-09-30T06:04:07.302Z,15.48
2022-09-30T06:06:34.640Z,15.72
2022-09-30T06:09:02.111Z,15.85
2022-09-30T06:11:29.763Z,15.98
2022-09-30T06:13:57.422Z,15.86
2022-09-30T06:16:25.090Z,15.98
2022-09-30T06:18:52.985Z,15.83
2022-09-30T06:21:20.979Z,15.84
2022-09-30T06:23:48.379Z,15.98
2022-09-30T06:26:16.210Z,15.42
2022-09-30T06:28:44.690Z,15.59
2022-09-30T06:31:12.115Z,15.74
2022-09-30T06:33:39.741Z,15.27
2022-09-30T06:36:07.246Z,15.85
2022-09-30T06:38:37.377Z,15.73
2022-09-30T06:41:05.409Z,15.93
2022-09-30T06:43:39.305Z,15.93
2022-09-30T06:46:29.549Z,16.21
2022-09-30T06:49:09.107Z,16.26
2022-09-30T06:51:40.071Z,16.30
2022-09-30T06:54:09.056Z,16.41
2022-09-30T06:56:37.008Z,16.41
2022-09-30T06:59:04.693Z,16.63
2022-09-30T07:01:32.054Z,16.59
2022-09-30T07:03:59.445Z,16.65
2022-09-30T07:06:27.114Z,16.71
2022-09-30T07:08:55.302Z,16.91
2022-09-30T07:11:24.033Z,16.83
2022-09-30T07:13:51.675Z,16.99
2022-09-30T07:16:20.010Z,16.81
2022-09-30T07:18:47.504Z,16.92
2022-09-30T07:21:16.131Z,16.91
2022-09-30T07:23:47.628Z,17.07
2022-09-30T07:26:16.142Z,16.70
2022-09-30T07:28:43.709Z,16.70
2022-09-30T07:31:31.840Z,17.00
2022-09-30T07:33:59.879Z,17.08
2022-09-30T07:36:32.779Z,17.13
2022-09-30T07:39:06.910Z,17.01
2022-09-30T07:41:36.033Z,17.06
2022-09-30T07:44:06.344Z,16.92
2022-09-30T07:46:34.514Z,17.33
2022-09-30T07:49:04.182Z,17.17
2022-09-30T07:51:34.407Z,17.21
2022-09-30T07:54:07.308Z,17.08
2022-09-30T07:56:57.795Z,16.99
2022-09-30T07:59:22.417Z,17.24
2022-09-30T08:01:50.826Z,17.22
2022-09-30T08:04:18.971Z,17.31
2022-09-30T08:06:48.980Z,17.43
2022-09-30T08:09:17.420Z,17.19
2022-09-30T08:11:45.122Z,17.05
2022-09-30T08:14:17.171Z,17.15
2022-09-30T08:16:44.835Z,17.15
2022-09-30T08:19:16.873Z,16.97
2022-09-30T08:21:45.250Z,16.92
2022-09-30T08:24:13.319Z,17.08
2022-09-30T08:26:40.867Z,17.23
2022-09-30T08:29:08.221Z,17.20
2022-09-30T08:31:35.847Z,17.16
2022-09-30T08:34:03.789Z,17.33
2022-09-30T08:36:31.100Z,17.33
2022-09-30T08:38:59.217Z,17.29
2022-09-30T08:41:36.116Z,16.71
2022-09-30T08:44:28.909Z,17.08
2022-09-30T08:47:05.315Z,17.39
2022-09-30T08:50:05.231Z,17.02
2022-09-30T08:52:48.509Z,17.17
2022-09-30T08:55:23.145Z,17.13
2022-09-30T08:57:50.513Z,17.30
2022-09-30T09:00:18.342Z,17.37
2022-09-30T09:02:59.380Z,17.63
2022-09-30T09:05:51.726Z,17.61
2022-09-30T09:08:49.115Z,17.60
2022-09-30T09:11:33.772Z,17.93
2022-09-30T09:14:13.874Z,17.84
2022-09-30T09:17:16.357Z,18.17
2022-09-30T09:19:59.263Z,18.61
2022-09-30T09:22:28.166Z,18.53
2022-09-30T09:24:55.797Z,18.59
2022-09-30T09:27:37.167Z,18.54
2022-09-30T09:30:10.877Z,18.32
2022-09-30T09:32:38.790Z,17.89
2022-09-30T09:35:17.318Z,18.01
2022-09-30T09:38:22.118Z,17.83
2022-09-30T09:41:11.656Z,17.53
2022-09-30T09:43:50.823Z,17.61
2022-09-30T09:46:42.093Z,17.89
2022-09-30T09:49:20.977Z,17.28
2022-09-30T09:51:53.772Z,17.80
2022-09-30T09:54:21.263Z,17.63
2022-09-30T09:56:52.957Z,17.89
2022-09-30T09:59:20.753Z,17.65
2022-09-30T10:01:53.718Z,17.77
2022-09-30T10:04:26.621Z,17.47
2022-09-30T10:07:01.111Z,17.56
2022-09-30T10:09:28.540Z,17.72
2022-09-30T10:12:08.032Z,17.78
2022-09-30T10:14:46.774Z,17.99
2022-09-30T10:17:28.213Z,18.40
2022-09-30T10:20:07.574Z,18.43
2022-09-30T10:22:35.954Z,18.49
2022-09-30T10:25:15.974Z,18.82
2022-09-30T10:27:59.300Z,18.94
2022-09-30T10:30:46.583Z,18.52
2022-09-30T10:33:22.381Z,18.82
2022-09-30T10:36:05.476Z,17.93
2022-09-30T10:38:44.802Z,18.73
2022-09-30T10:41:12.377Z,19.19
2022-09-30T10:43:44.897Z,19.08
2022-09-30T10:46:29.176Z,19.19
2022-09-30T10:49:24.576Z,19.31
2022-09-30T10:51:57.382Z,19.41
2022-09-30T10:54:50.650Z,19.73
2022-09-30T10:57:37.868Z,20.18
2022-09-30T11:00:19.625Z,20.13
2022-09-30T11:03:00.305Z,20.43
2022-09-30T11:05:31.238Z,19.89
2022-09-30T11:08:11.309Z,19.88
2022-09-30T11:10:58.631Z,19.93
2022-09-30T11:13:31.536Z,20.12
2022-09-30T11:16:36.681Z,20.01
2022-09-30T11:19:16.643Z,20.14
2022-09-30T11:21:55.934Z,20.13
2022-09-30T11:24:37.446Z,19.50
2022-09-30T11:27:49.760Z,19.57
2022-09-30T11:30:35.770Z,19.55
2022-09-30T11:33:09.303Z,19.00
2022-09-30T11:35:49.091Z,19.80
2022-09-30T11:38:45.779Z,19.82
2022-09-30T11:41:24.597Z,19.44
2022-09-30T11:44:05.535Z,19.30
2022-09-30T11:47:10.433Z,19.99
2022-09-30T11:49:53.553Z,20.06
2022-09-30T11:52:47.835Z,20.16
2022-09-30T11:55:44.797Z,19.54
2022-09-30T11:58:39.402Z,19.74
2022-09-30T12:01:13.739Z,20.27
2022-09-30T12:03:48.492Z,20.16
2022-09-30T12:06:27.213Z,20.97
2022-09-30T12:08:59.853Z,21.21
2022-09-30T12:11:49.660Z,20.89
2022-09-30T12:14:21.143Z,20.56
2022-09-30T12:16:48.549Z,19.81
2022-09-30T12:19:28.226Z,19.55
2022-09-30T12:22:00.329Z,20.10
2022-09-30T12:24:36.167Z,19.14
2022-09-30T12:27:24.686Z,19.25
2022-09-30T12:30:20.747Z,19.61
2022-09-30T12:33:22.117Z,19.61
2022-09-30T12:36:03.623Z,19.55
2022-09-30T12:38:43.261Z,19.49
2022-09-30T12:41:41.410Z,18.92
2022-09-30T12:44:23.968Z,19.56
2022-09-30T12:47:19.333Z,19.62
2022-09-30T12:49:46.902Z,17.83
2022-09-30T12:52:17.012Z,18.15
2022-09-30T12:55:09.138Z,17.94
2022-09-30T12:57:39.699Z,17.66
2022-09-30T13:00:14.632Z,18.05
2022-09-30T13:02:44.049Z,18.39
2022-09-30T13:05:34.561Z,18.31
2022-09-30T13:08:05.102Z,18.24
2022-09-30T13:10:38.247Z,18.20
2022-09-30T13:13:23.650Z,18.58
2022-09-30T13:15:52.169Z,18.11
2022-09-30T13:18:19.654Z,17.81
2022-09-30T13:20:55.053Z,17.63
2022-09-30T13:23:35.227Z,18.01
2022-09-30T13:26:03.110Z,17.79
2022-09-30T13:28:37.013Z,17.60
2022-09-30T13:31:19.318Z,18.13
2022-09-30T13:34:02.474Z,17.65
2022-09-30T13:36:38.701Z,18.55
2022-09-30T13:39:23.575Z,17.94
2022-09-30T13:42:30.012Z,18.05
2022-09-30T13:45:04.496Z,17.58
2022-09-30T13:47:52.130Z,18.64
2022-09-30T13:50:31.643Z,18.51
2022-09-30T13:53:01.177Z,18.94
2022-09-30T13:55:50.233Z,18.55
2022-09-30T13:58:42.818Z,18.32
2022-09-30T14:01:34.888Z,18.84
2022-09-30T14:04:27.233Z,18.90
2022-09-30T14:07:06.541Z,18.22
2022-09-30T14:10:13.187Z,19.46
2022-09-30T14:12:49.404Z,19.09
2022-09-30T14:15:45.388Z,19.47
2022-09-30T14:18:46.393Z,18.74
2022-09-30T14:21:44.633Z,18.13
2022-09-30T14:24:17.635Z,17.81
2022-09-30T14:26:45.188Z,18.28
2022-09-30T14:29:30.396Z,17.60
2022-09-30T14:32:00.003Z,17.79
2022-09-30T14:34:27.458Z,17.97
2022-09-30T14:39:39.919Z,17.45
2022-09-30T14:42:11.829Z,17.60
2022-09-30T14:44:39.174Z,17.58
2022-09-30T14:47:06.796Z,17.64
2022-09-30T14:49:36.067Z,17.73
2022-09-30T14:52:03.890Z,18.43
2022-09-30T14:54:32.505Z,18.20
2022-09-30T14:57:02.280Z,18.03
2022-09-30T14:59:34.650Z,18.34
2022-09-30T15:02:05.166Z,17.37
2022-09-30T15:04:38.392Z,18.40
2022-09-30T15:07:09.963Z,18.68
2022-09-30T15:09:43.481Z,18.23
2022-09-30T15:12:23.717Z,17.60
2022-09-30T15:14:51.774Z,17.26
2022-09-30T15:17:20.742Z,16.82
2022-09-30T15:19:50.232Z,16.40
2022-09-30T15:22:17.685Z,16.69
2022-09-30T15:24:45.795Z,16.69
2022-09-30T15:27:21.826Z,16.86
2022-09-30T15:29:55.934Z,16.80
2022-09-30T15:32:24.482Z,17.28
2022-09-30T15:34:52.355Z,18.03
2022-09-30T15:37:24.029Z,17.77
2022-09-30T15:40:10.289Z,17.53
2022-09-30T15:42:45.671Z,17.32
2022-09-30T15:45:33.670Z,17.89
2022-09-30T15:48:05.458Z,18.02
2022-09-30T15:50:36.513Z,18.21
2022-09-30T15:53:22.703Z,17.99
2022-09-30T15:55:53.396Z,18.17
2022-09-30T15:58:26.884Z,18.30
2022-09-30T16:00:54.664Z,18.29
2022-09-30T16:03:29.017Z,18.00
2022-09-30T16:06:10.871Z,17.02
2022-09-30T16:08:44.565Z,17.48
2022-09-30T16:11:26.559Z,17.89
2022-09-30T16:13:54.189Z,17.67
2022-09-30T16:16:23.445Z,17.78
2022-09-30T16:18:51.927Z,17.89
2022-09-30T16:21:44.845Z,17.63
2022-09-30T16:24:32.195Z,17.76
2022-09-30T16:27:02.999Z,17.67
2022-09-30T16:29:30.454Z,17.71
2022-09-30T16:31:57.918Z,17.36
2022-09-30T16:34:29.203Z,17.65
2022-09-30T16:37:05.187Z,17.62
2022-09-30T16:39:32.787Z,17.82
2022-09-30T16:42:00.101Z,17.88
2022-09-30T16:44:27.509Z,17.66
2022-09-30T16:46:55.159Z,17.71
2022-09-30T16:49:22.491Z,17.39
2022-09-30T16:51:49.911Z,17.46
2022-09-30T16:54:17.511Z,17.52
2022-09-30T16:56:44.858Z,17.61
2022-09-30T16:59:15.955Z,17.59
2022-09-30T17:01:43.563Z,17.59
2022-09-30T17:04:14.067Z,17.31
2022-09-30T17:06:44.828Z,17.39
2022-09-30T17:09:12.203Z,17.14
2022-09-30T17:11:40.185Z,17.24
2022-09-30T17:14:07.835Z,17.10
2022-09-30T17:16:36.411Z,17.25
2022-09-30T17:19:04.671Z,17.20
2022-09-30T17:21:32.275Z,17.19
2022-09-30T17:23:59.631Z,17.31
2022-09-30T17:26:26.946Z,17.17
2022-09-30T17:29:00.245Z,17.23
2022-09-30T17:31:36.372Z,17.33
2022-09-30T17:34:07.989Z,17.13
2022-09-30T17:36:36.556Z,17.01
2022-09-30T17:39:05.213Z,16.89
2022-09-30T17:41:51.499Z,16.91
2022-09-30T17:44:19.151Z,16.81
2022-09-30T17:46:46.549Z,16.99
2022-09-30T17:49:14.035Z,16.95
2022-09-30T17:51:41.663Z,17.01
2022-09-30T17:54:09.115Z,17.21
2022-09-30T17:56:39.021Z,16.83
2022-09-30T17:59:07.015Z,16.91
2022-09-30T18:01:35.875Z,17.01
2022-09-30T18:04:04.058Z,16.83
2022-09-30T18:06:32.242Z,16.77
2022-09-30T18:09:00.379Z,16.77
2022-09-30T18:11:31.211Z,16.99
2022-09-30T18:13:59.483Z,16.32
2022-09-30T18:16:30.439Z,16.53
2022-09-30T18:18:58.597Z,16.80
2022-09-30T18:21:26.014Z,16.50
2022-09-30T18:23:53.961Z,16.49
2022-09-30T18:26:23.974Z,16.51
2022-09-30T18:28:52.841Z,16.27
2022-09-30T18:31:28.446Z,16.57
2022-09-30T18:33:56.395Z,16.36
2022-09-30T18:36:24.617Z,16.45
2022-09-30T18:38:52.617Z,16.45
2022-09-30T18:41:20.817Z,16.19
2022-09-30T18:43:50.629Z,16.36
2022-09-30T18:46:19.721Z,16.34
2022-09-30T18:48:50.774Z,16.62
2022-09-30T18:51:18.895Z,16.80
2022-09-30T18:53:46.604Z,16.33
2022-09-30T18:56:13.942Z,16.23
2022-09-30T18:58:41.275Z,15.98
2022-09-30T19:01:08.973Z,15.94
2022-09-30T19:03:36.467Z,16.03
2022-09-30T19:06:07.932Z,16.28
2022-09-30T19:08:35.558Z,16.31
2022-09-30T19:11:13.936Z,16.42
2022-09-30T19:13:43.035Z,16.43
2022-09-30T19:16:11.174Z,16.41
2022-09-30T19:18:39.767Z,16.33
2022-09-30T19:21:08.356Z,16.44
2022-09-30T19:23:35.881Z,16.47
2022-09-30T19:26:03.334Z,16.58
2022-09-30T19:28:36.658Z,16.65
2022-09-30T19:31:12.413Z,16.60
2022-09-30T19:33:49.213Z,16.33
2022-09-30T19:36:19.776Z,16.89
2022-09-30T19:38:47.465Z,16.78
2022-09-30T19:41:18.140Z,16.51
2022-09-30T19:43:49.116Z,16.68
2022-09-30T19:46:16.919Z,16.72
2022-09-30T19:48:45.193Z,16.85
2022-09-30T19:51:13.974Z,16.88
2022-09-30T19:53:44.996Z,16.93
2022-09-30T19:56:21.564Z,16.83
2022-09-30T19:58:53.398Z,16.97
2022-09-30T20:01:22.236Z,16.95
2022-09-30T20:03:51.033Z,16.60
2022-09-30T20:06:18.386Z,16.89
2022-09-30T20:08:51.294Z,16.71
2022-09-30T20:11:20.273Z,16.45
2022-09-30T20:14:11.561Z,16.62
2022-09-30T20:16:39.587Z,16.51
2022-09-30T20:19:07.094Z,16.40
2022-09-30T20:21:35.220Z,16.49
2022-09-30T20:24:03.053Z,16.65
2022-09-30T20:26:31.918Z,16.46
2022-09-30T20:29:00.217Z,16.63
2022-09-30T20:31:27.896Z,16.24
2022-09-30T20:33:58.953Z,16.30
2022-09-30T20:36:28.021Z,16.23
2022-09-30T20:38:59.190Z,16.20
2022-09-30T20:41:27.049Z,16.14
2022-09-30T20:43:54.452Z,16.28
2022-09-30T20:46:22.658Z,16.59
2022-09-30T20:48:50.135Z,16.28
2022-09-30T20:51:18.627Z,16.24
2022-09-30T20:53:52.933Z,15.94
2022-09-30T20:56:21.663Z,16.28
2022-09-30T20:58:49.843Z,16.43
2022-09-30T21:01:21.309Z,16.00
2022-09-30T21:03:53.124Z,15.88
2022-09-30T21:06:25.054Z,16.58
2022-09-30T21:08:53.529Z,16.45
2022-09-30T21:11:23.323Z,16.50
2022-09-30T21:13:52.183Z,16.37
2022-09-30T21:16:24.667Z,16.41
2022-09-30T21:18:52.498Z,16.50
2022-09-30T21:21:21.473Z,16.16
2022-09-30T21:23:48.929Z,16.46
2022-09-30T21:26:17.066Z,16.58
2022-09-30T21:28:49.267Z,16.59
2022-09-30T21:31:20.306Z,16.63
2022-09-30T21:33:58.445Z,16.37
2022-09-30T21:36:27.238Z,16.43
2022-09-30T21:38:55.014Z,16.49
2022-09-30T21:41:22.842Z,16.56
2022-09-30T21:43:50.206Z,16.60
2022-09-30T21:46:18.705Z,16.85
2022-09-30T21:48:46.209Z,16.37
2022-09-30T21:51:13.895Z,16.28
2022-09-30T21:53:41.647Z,16.47
2022-09-30T21:56:11.589Z,16.47
2022-09-30T21:58:39.057Z,16.28
2022-09-30T22:01:07.021Z,16.40
2022-09-30T22:03:38.681Z,16.72
2022-09-30T22:06:07.404Z,16.66
2022-09-30T22:08:36.208Z,16.71
2022-09-30T22:11:07.024Z,16.34
2022-09-30T22:13:34.669Z,16.43
2022-09-30T22:16:04.051Z,16.80
2022-09-30T22:18:32.270Z,16.79
2022-09-30T22:21:08.019Z,16.78
2022-09-30T22:23:35.415Z,16.88
2022-09-30T22:26:22.807Z,16.71
2022-09-30T22:28:54.948Z,16.61
2022-09-30T22:31:24.379Z,16.52
2022-09-30T22:34:12.234Z,16.13
2022-09-30T22:36:58.548Z,16.61
2022-09-30T22:39:25.927Z,16.53
2022-09-30T22:41:54.399Z,16.88
2022-09-30T22:44:26.341Z,16.66
2022-09-30T22:46:54.126Z,16.64
2022-09-30T22:49:21.912Z,16.62
2022-09-30T22:51:56.317Z,16.77
2022-09-30T22:54:24.775Z,16.78
2022-09-30T22:56:52.593Z,16.73
2022-09-30T22:59:19.993Z,16.67
2022-09-30T23:01:49.233Z,16.45
2022-09-30T23:04:17.241Z,16.73
2022-09-30T23:06:48.671Z,16.67
2022-09-30T23:09:17.201Z,16.55
2022-09-30T23:11:45.308Z,16.53
2022-09-30T23:14:13.093Z,16.67
2022-09-30T23:16:40.879Z,16.69
2022-09-30T23:19:08.375Z,16.74
2022-09-30T23:21:36.236Z,16.53
2022-09-30T23:24:04.250Z,16.65
2022-09-30T23:26:31.644Z,16.63
2022-09-30T23:29:02.810Z,16.56
2022-09-30T23:31:30.652Z,16.67
2022-09-30T23:34:02.398Z,16.62
2022-09-30T23:36:31.335Z,16.71
2022-09-30T23:39:05.230Z,16.74
2022-09-30T23:41:34.172Z,16.61
2022-09-30T23:44:02.150Z,16.44
2022-09-30T23:46:29.525Z,16.30
2022-09-30T23:48:57.239Z,16.52
2022-09-30T23:51:24.671Z,16.60
2022-09-30T23:53:52.027Z,16.30
2022-09-30T23:56:19.722Z,16.37
2022-09-30T23:58:47.360Z,16.63
